Hoss — WDC6733 — position and weather

sailwx.info

Track history (hours):
 
Tides and Currents Weather Stations Pressure Air Temp Water Temp Dewpoint Dewpoint Depression Visibility Wind Speed Wind Dir Waves Ship Positions

Hoss

Owner: Intracoastal Marine Inc., Coinjock, NC. More information available from US FCC via Universal Licensing System and Coast Guard Vessel Documentation Center.

Last reported at 2018-Feb-19 22:00 UTC. Time now 2018-Feb-19 22:09 UTC.
Position N 36°49' W 076°17'.

Length 10 m; draft 3 m.

Type: Tug. MMSI: 367060510.

Date/timePositionNaut miles runAvg speedWind from/ knotsBaromVisibWave heightAir tempDewpointWater temp
2018-Feb-19 22:00N 36°49' W 076°17'0 0.5
2018-Feb-19 21:30N 36°49' W 076°17'0 0.0
2018-Feb-19 21:00N 36°49' W 076°17'0 0.0
2018-Feb-19 20:30N 36°49' W 076°17'0 0.0
2018-Feb-19 20:01N 36°49' W 076°17'1 1.3
2018-Feb-19 19:30N 36°48' W 076°17'0 0.1
2018-Feb-19 19:00N 36°48' W 076°17'0 0.0
2018-Feb-19 18:30N 36°48' W 076°17'0 0.0
2018-Feb-19 18:00N 36°48' W 076°17'0 0.0
2018-Feb-19 17:31N 36°48' W 076°17'0 0.0
2018-Feb-19 17:00N 36°48' W 076°17'3 5.7
2018-Feb-19 16:30N 36°51' W 076°18'2 4.5
2018-Feb-19 16:00N 36°52' W 076°21'1 1.2
2018-Feb-19 15:31N 36°53' W 076°20'2 3.2
2018-Feb-19 15:00N 36°51' W 076°19'0 0.0
2018-Feb-19 14:31N 36°51' W 076°19'0 0.0
2018-Feb-19 14:00N 36°51' W 076°19'0 0.0
2018-Feb-19 13:31N 36°51' W 076°19'0 0.0
2018-Feb-19 13:00N 36°51' W 076°19'0 0.0
2018-Feb-19 12:30N 36°51' W 076°19'0 0.0
2018-Feb-19 12:00N 36°51' W 076°19'0 0.0
2018-Feb-19 11:30N 36°51' W 076°19'0 0.0
2018-Feb-19 11:00N 36°51' W 076°19'0 0.0
2018-Feb-19 10:30N 36°51' W 076°19'0 0.0
2018-Feb-19 10:01N 36°51' W 076°19'0 0.0
2018-Feb-19 09:30N 36°51' W 076°19'0 0.0
2018-Feb-19 09:00N 36°51' W 076°19'0 0.0
2018-Feb-19 08:30N 36°51' W 076°19'0 0.0
2018-Feb-19 08:00N 36°51' W 076°19'0 0.0
2018-Feb-19 07:30N 36°51' W 076°19'0 0.0
2018-Feb-19 07:01N 36°51' W 076°19'0 0.1
2018-Feb-19 06:30N 36°52' W 076°19'0 0.1
2018-Feb-19 05:59N 36°52' W 076°19'2 3.9
2018-Feb-19 05:30N 36°53' W 076°20'3 6.2
2018-Feb-19 05:00N 36°56' W 076°20'3 5.2
2018-Feb-19 04:30N 36°57' W 076°23'3 5.3
2018-Feb-19 03:59N 36°58' W 076°27'3 5.7
2018-Feb-19 03:28N 37°01' W 076°29'3 6.0
2018-Feb-19 02:57N 37°02' W 076°32'5 0.2
2018-Feb-17 22:57N 36°59' W 076°27'4 6.3
2018-Feb-17 22:16N 36°57' W 076°23'2 6.1
2018-Feb-17 21:56N 36°56' W 076°20'3 8.1
2018-Feb-17 21:30N 36°52' W 076°20'1 2.9
2018-Feb-17 21:00N 36°51' W 076°19'3 6.4
2018-Feb-17 20:30N 36°48' W 076°17'0 0.0
2018-Feb-17 20:00N 36°48' W 076°17'0 0.0
2018-Feb-17 19:30N 36°48' W 076°17'0 0.0
2018-Feb-17 18:59N 36°48' W 076°17'0 0.0
2018-Feb-17 18:30N 36°48' W 076°17'0 0.0
2018-Feb-17 18:00N 36°48' W 076°17'0 0.0
2018-Feb-17 17:30N 36°48' W 076°17'0 0.0
2018-Feb-17 17:00N 36°48' W 076°17'0 0.0
2018-Feb-17 16:30N 36°48' W 076°17'0 0.0
2018-Feb-17 16:00N 36°48' W 076°17'0 0.0
2018-Feb-17 15:30N 36°48' W 076°17'0 0.0
2018-Feb-17 15:00N 36°48' W 076°17'0 0.0
2018-Feb-17 14:30N 36°48' W 076°17'0 0.0
2018-Feb-17 14:00N 36°48' W 076°17'0 0.0
2018-Feb-17 13:30N 36°48' W 076°17'0 0.0
2018-Feb-17 13:00N 36°48' W 076°17'0 0.0
2018-Feb-17 12:30N 36°48' W 076°17'0 0.0
2018-Feb-17 12:00N 36°48' W 076°17'0 0.0
2018-Feb-17 11:30N 36°48' W 076°17'0 0.0
2018-Feb-17 11:00N 36°48' W 076°17'0 0.0
2018-Feb-17 10:30N 36°48' W 076°17'3 5.5
2018-Feb-17 10:00N 36°51' W 076°18'2 4.8
2018-Feb-17 09:30N 36°52' W 076°21'0 0.3
2018-Feb-17 09:00N 36°52' W 076°21'1 2.9
2018-Feb-17 08:30N 36°52' W 076°19'1 2.8
2018-Feb-17 08:00N 36°52' W 076°21'0 0.1
2018-Feb-17 07:30N 36°52' W 076°21'1 2.7
2018-Feb-17 07:00N 36°53' W 076°20'4 0.1
2018-Feb-16 02:44N 36°57' W 076°22'2 5.4
2018-Feb-16 02:17N 36°55' W 076°20'2 7.7
2018-Feb-16 02:00N 36°53' W 076°20'1 2.5
2018-Feb-16 01:30N 36°51' W 076°19'0 0.6
2018-Feb-16 00:59N 36°52' W 076°19'5 8.7
2018-Feb-16 00:23N 36°57' W 076°21'4 8.6
2018-Feb-15 23:58N 36°58' W 076°26'3 0.1
2018-Feb-15 04:14N 36°60' W 076°28'2 5.8
2018-Feb-15 03:58N 36°59' W 076°27'4 5.3
2018-Feb-15 03:12N 36°57' W 076°22'1 5.6
2018-Feb-15 02:56N 36°56' W 076°20'3 6.6
2018-Feb-15 02:30N 36°53' W 076°20'3 5.9
2018-Feb-15 02:00N 36°51' W 076°18'3 5.8
2018-Feb-15 01:31N 36°48' W 076°17'0 0.1
2018-Feb-15 01:00N 36°48' W 076°17'0 0.1
2018-Feb-15 00:30N 36°48' W 076°17'1 1.1
2018-Feb-15 00:01N 36°48' W 076°17'0 0.0
2018-Feb-14 22:46N 36°48' W 076°17'0 0.0
2018-Feb-14 22:30N 36°48' W 076°17'0 0.0
2018-Feb-14 22:00N 36°48' W 076°17'0 0.4
2018-Feb-14 21:30N 36°48' W 076°17'1 2.2
2018-Feb-14 21:00N 36°50' W 076°18'2 3.4
2018-Feb-14 20:30N 36°51' W 076°18'1 1.9
2018-Feb-14 20:00N 36°50' W 076°18'1 1.3
2018-Feb-14 19:30N 36°50' W 076°17'0 0.0
2018-Feb-14 19:00N 36°50' W 076°17'0 0.0
2018-Feb-14 18:30N 36°50' W 076°17'0 0.0
2018-Feb-14 18:00N 36°50' W 076°17'0 0.0
2018-Feb-14 17:30N 36°50' W 076°17'0 0.0
2018-Feb-14 17:00N 36°50' W 076°17'0 0.0
2018-Feb-14 16:30N 36°50' W 076°17'0 0.0
2018-Feb-14 16:00N 36°50' W 076°17'0 0.0
2018-Feb-14 15:30N 36°50' W 076°17'0 0.0
2018-Feb-14 15:00N 36°50' W 076°17'0 0.0
2018-Feb-14 14:30N 36°50' W 076°17'0 0.3
2018-Feb-14 14:00N 36°50' W 076°18'2 3.6
2018-Feb-14 13:30N 36°51' W 076°19'3 5.3
2018-Feb-14 12:57N 36°54' W 076°20'1 1.8
2018-Feb-14 12:21N 36°55' W 076°20'2 5.2
2018-Feb-14 12:00N 36°53' W 076°20'4 7.8
2018-Feb-14 11:30N 36°50' W 076°18'1 0.0
2018-Feb-12 19:46N 36°48' W 076°17'1 2.9
2018-Feb-12 19:30N 36°48' W 076°18'2 3.8
2018-Feb-12 19:00N 36°46' W 076°18'1 1.5
2018-Feb-12 18:30N 36°47' W 076°18'1 2.2
2018-Feb-12 18:00N 36°48' W 076°18'1 1.5
2018-Feb-12 17:30N 36°48' W 076°17'4 7.1
2018-Feb-12 16:59N 36°52' W 076°19'1 2.8
2018-Feb-12 16:29N 36°53' W 076°20'1 1.3
2018-Feb-12 16:00N 36°52' W 076°21'0 0.1
2018-Feb-12 15:30N 36°52' W 076°21'0 0.0
2018-Feb-12 15:00N 36°52' W 076°21'0 0.1
2018-Feb-12 14:24N 36°52' W 076°21'0 0.1
2018-Feb-12 13:57N 36°52' W 076°21'0 0.1
2018-Feb-12 13:29N 36°52' W 076°21'0 0.4
2018-Feb-12 13:00N 36°52' W 076°21'2 3.4
2018-Feb-12 12:30N 36°51' W 076°19'0 0.1
2018-Feb-12 12:00N 36°51' W 076°19'1 2.0
2018-Feb-12 11:30N 36°51' W 076°18'  
Track history (hours):
 
Tides and Currents Weather Stations Pressure Air Temp Water Temp Dewpoint Dewpoint Depression Visibility Wind Speed Wind Dir Waves Ship Positions

Hoss

Owner: Intracoastal Marine Inc., Coinjock, NC. More information available from US FCC via Universal Licensing System and Coast Guard Vessel Documentation Center.

Last reported at 2018-Feb-19 22:00 UTC. Time now 2018-Feb-19 22:09 UTC.
Position N 36°49' W 076°17'.

Length 10 m; draft 3 m.

Type: Tug. MMSI: 367060510.

Date/timePositionNaut miles runAvg speedWind from/ knotsBaromVisibWave heightAir tempDewpointWater temp
2018-Feb-19 22:00N 36°49' W 076°17'0 0.5
2018-Feb-19 21:30N 36°49' W 076°17'0 0.0
2018-Feb-19 21:00N 36°49' W 076°17'0 0.0
2018-Feb-19 20:30N 36°49' W 076°17'0 0.0
2018-Feb-19 20:01N 36°49' W 076°17'1 1.3
2018-Feb-19 19:30N 36°48' W 076°17'0 0.1
2018-Feb-19 19:00N 36°48' W 076°17'0 0.0
2018-Feb-19 18:30N 36°48' W 076°17'0 0.0
2018-Feb-19 18:00N 36°48' W 076°17'0 0.0
2018-Feb-19 17:31N 36°48' W 076°17'0 0.0
2018-Feb-19 17:00N 36°48' W 076°17'3 5.7
2018-Feb-19 16:30N 36°51' W 076°18'2 4.5
2018-Feb-19 16:00N 36°52' W 076°21'1 1.2
2018-Feb-19 15:31N 36°53' W 076°20'2 3.2
2018-Feb-19 15:00N 36°51' W 076°19'0 0.0
2018-Feb-19 14:31N 36°51' W 076°19'0 0.0
2018-Feb-19 14:00N 36°51' W 076°19'0 0.0
2018-Feb-19 13:31N 36°51' W 076°19'0 0.0
2018-Feb-19 13:00N 36°51' W 076°19'0 0.0
2018-Feb-19 12:30N 36°51' W 076°19'0 0.0
2018-Feb-19 12:00N 36°51' W 076°19'0 0.0
2018-Feb-19 11:30N 36°51' W 076°19'0 0.0
2018-Feb-19 11:00N 36°51' W 076°19'0 0.0
2018-Feb-19 10:30N 36°51' W 076°19'0 0.0
2018-Feb-19 10:01N 36°51' W 076°19'0 0.0
2018-Feb-19 09:30N 36°51' W 076°19'0 0.0
2018-Feb-19 09:00N 36°51' W 076°19'0 0.0
2018-Feb-19 08:30N 36°51' W 076°19'0 0.0
2018-Feb-19 08:00N 36°51' W 076°19'0 0.0
2018-Feb-19 07:30N 36°51' W 076°19'0 0.0
2018-Feb-19 07:01N 36°51' W 076°19'0 0.1
2018-Feb-19 06:30N 36°52' W 076°19'0 0.1
2018-Feb-19 05:59N 36°52' W 076°19'2 3.9
2018-Feb-19 05:30N 36°53' W 076°20'3 6.2
2018-Feb-19 05:00N 36°56' W 076°20'3 5.2
2018-Feb-19 04:30N 36°57' W 076°23'3 5.3
2018-Feb-19 03:59N 36°58' W 076°27'3 5.7
2018-Feb-19 03:28N 37°01' W 076°29'3 6.0
2018-Feb-19 02:57N 37°02' W 076°32'5 0.2
2018-Feb-17 22:57N 36°59' W 076°27'4 6.3
2018-Feb-17 22:16N 36°57' W 076°23'2 6.1
2018-Feb-17 21:56N 36°56' W 076°20'3 8.1
2018-Feb-17 21:30N 36°52' W 076°20'1 2.9
2018-Feb-17 21:00N 36°51' W 076°19'3 6.4
2018-Feb-17 20:30N 36°48' W 076°17'0 0.0
2018-Feb-17 20:00N 36°48' W 076°17'0 0.0
2018-Feb-17 19:30N 36°48' W 076°17'0 0.0
2018-Feb-17 18:59N 36°48' W 076°17'0 0.0
2018-Feb-17 18:30N 36°48' W 076°17'0 0.0
2018-Feb-17 18:00N 36°48' W 076°17'0 0.0
2018-Feb-17 17:30N 36°48' W 076°17'0 0.0
2018-Feb-17 17:00N 36°48' W 076°17'0 0.0
2018-Feb-17 16:30N 36°48' W 076°17'0 0.0
2018-Feb-17 16:00N 36°48' W 076°17'0 0.0
2018-Feb-17 15:30N 36°48' W 076°17'0 0.0
2018-Feb-17 15:00N 36°48' W 076°17'0 0.0
2018-Feb-17 14:30N 36°48' W 076°17'0 0.0
2018-Feb-17 14:00N 36°48' W 076°17'0 0.0
2018-Feb-17 13:30N 36°48' W 076°17'0 0.0
2018-Feb-17 13:00N 36°48' W 076°17'0 0.0
2018-Feb-17 12:30N 36°48' W 076°17'0 0.0
2018-Feb-17 12:00N 36°48' W 076°17'0 0.0
2018-Feb-17 11:30N 36°48' W 076°17'0 0.0
2018-Feb-17 11:00N 36°48' W 076°17'0 0.0
2018-Feb-17 10:30N 36°48' W 076°17'3 5.5
2018-Feb-17 10:00N 36°51' W 076°18'2 4.8
2018-Feb-17 09:30N 36°52' W 076°21'0 0.3
2018-Feb-17 09:00N 36°52' W 076°21'1 2.9
2018-Feb-17 08:30N 36°52' W 076°19'1 2.8
2018-Feb-17 08:00N 36°52' W 076°21'0 0.1
2018-Feb-17 07:30N 36°52' W 076°21'1 2.7
2018-Feb-17 07:00N 36°53' W 076°20'4 0.1
2018-Feb-16 02:44N 36°57' W 076°22'2 5.4
2018-Feb-16 02:17N 36°55' W 076°20'2 7.7
2018-Feb-16 02:00N 36°53' W 076°20'1 2.5
2018-Feb-16 01:30N 36°51' W 076°19'0 0.6
2018-Feb-16 00:59N 36°52' W 076°19'5 8.7
2018-Feb-16 00:23N 36°57' W 076°21'4 8.6
2018-Feb-15 23:58N 36°58' W 076°26'3 0.1
2018-Feb-15 04:14N 36°60' W 076°28'2 5.8
2018-Feb-15 03:58N 36°59' W 076°27'4 5.3
2018-Feb-15 03:12N 36°57' W 076°22'1 5.6
2018-Feb-15 02:56N 36°56' W 076°20'3 6.6
2018-Feb-15 02:30N 36°53' W 076°20'3 5.9
2018-Feb-15 02:00N 36°51' W 076°18'3 5.8
2018-Feb-15 01:31N 36°48' W 076°17'0 0.1
2018-Feb-15 01:00N 36°48' W 076°17'0 0.1
2018-Feb-15 00:30N 36°48' W 076°17'1 1.1
2018-Feb-15 00:01N 36°48' W 076°17'0 0.0
2018-Feb-14 22:46N 36°48' W 076°17'0 0.0
2018-Feb-14 22:30N 36°48' W 076°17'0 0.0
2018-Feb-14 22:00N 36°48' W 076°17'0 0.4
2018-Feb-14 21:30N 36°48' W 076°17'1 2.2
2018-Feb-14 21:00N 36°50' W 076°18'2 3.4
2018-Feb-14 20:30N 36°51' W 076°18'1 1.9
2018-Feb-14 20:00N 36°50' W 076°18'1 1.3
2018-Feb-14 19:30N 36°50' W 076°17'0 0.0
2018-Feb-14 19:00N 36°50' W 076°17'0 0.0
2018-Feb-14 18:30N 36°50' W 076°17'0 0.0
2018-Feb-14 18:00N 36°50' W 076°17'0 0.0
2018-Feb-14 17:30N 36°50' W 076°17'0 0.0
2018-Feb-14 17:00N 36°50' W 076°17'0 0.0
2018-Feb-14 16:30N 36°50' W 076°17'0 0.0
2018-Feb-14 16:00N 36°50' W 076°17'0 0.0
2018-Feb-14 15:30N 36°50' W 076°17'0 0.0
2018-Feb-14 15:00N 36°50' W 076°17'0 0.0
2018-Feb-14 14:30N 36°50' W 076°17'0 0.3
2018-Feb-14 14:00N 36°50' W 076°18'2 3.6
2018-Feb-14 13:30N 36°51' W 076°19'3 5.3
2018-Feb-14 12:57N 36°54' W 076°20'1 1.8
2018-Feb-14 12:21N 36°55' W 076°20'2 5.2
2018-Feb-14 12:00N 36°53' W 076°20'4 7.8
2018-Feb-14 11:30N 36°50' W 076°18'1 0.0
2018-Feb-12 19:46N 36°48' W 076°17'1 2.9
2018-Feb-12 19:30N 36°48' W 076°18'2 3.8
2018-Feb-12 19:00N 36°46' W 076°18'1 1.5
2018-Feb-12 18:30N 36°47' W 076°18'1 2.2
2018-Feb-12 18:00N 36°48' W 076°18'1 1.5
2018-Feb-12 17:30N 36°48' W 076°17'4 7.1
2018-Feb-12 16:59N 36°52' W 076°19'1 2.8
2018-Feb-12 16:29N 36°53' W 076°20'1 1.3
2018-Feb-12 16:00N 36°52' W 076°21'0 0.1
2018-Feb-12 15:30N 36°52' W 076°21'0 0.0
2018-Feb-12 15:00N 36°52' W 076°21'0 0.1
2018-Feb-12 14:24N 36°52' W 076°21'0 0.1
2018-Feb-12 13:57N 36°52' W 076°21'0 0.1
2018-Feb-12 13:29N 36°52' W 076°21'0 0.4
2018-Feb-12 13:00N 36°52' W 076°21'2 3.4
2018-Feb-12 12:30N 36°51' W 076°19'0 0.1
2018-Feb-12 12:00N 36°51' W 076°19'1 2.0
2018-Feb-12 11:30N 36°51' W 076°18'  

Dump ship's entire track history